Time;durP1;ratioP1;P1;durP2;ratioP2;P2;SDS_P1;SDS_P2;PMS_P1;PMS_P2;Temp;Humidity;BMP_temperature;BMP_pressure;BME280_temperature;BME280_humidity;BME280_pressure;Samples;Min_cycle;Max_cycle;Signal;HPM_P1;HPM_P2
2022/06/15 00:02:06;;;;;;;12.90;9.48;;;12.80;99.90;;;;;;4968446;28;20429;-58
2022/06/15 00:04:33;;;;;;;12.57;9.20;;;12.80;99.90;;;;;;4966866;28;20486;-58
2022/06/15 00:07:00;;;;;;;12.85;7.88;;;12.80;99.90;;;;;;4976217;28;21397;-58
2022/06/15 00:09:26;;;;;;;13.63;8.55;;;12.80;99.90;;;;;;4964682;28;20454;-57
2022/06/15 00:11:51;;;;;;;12.25;9.40;;;12.70;99.90;;;;;;4968792;28;20179;-57
2022/06/15 00:14:23;;;;;;;12.80;7.88;;;12.70;99.90;;;;;;4969616;28;20164;-57
2022/06/15 00:16:50;;;;;;;12.07;8.98;;;12.70;99.90;;;;;;4967249;28;20050;-58
2022/06/15 00:19:16;;;;;;;12.65;9.65;;;12.70;99.90;;;;;;4949787;28;20039;-56
2022/06/15 00:21:42;;;;;;;12.38;9.60;;;12.70;99.90;;;;;;4964088;28;20085;-57
2022/06/15 00:24:08;;;;;;;13.25;10.35;;;12.60;99.90;;;;;;4967238;28;20121;-58
2022/06/15 00:26:34;;;;;;;12.35;9.90;;;12.60;99.90;;;;;;4967688;28;20389;-58
2022/06/15 00:29:00;;;;;;;14.68;10.40;;;12.60;99.90;;;;;;4967153;28;20045;-57
2022/06/15 00:31:26;;;;;;;12.63;9.63;;;12.60;99.90;;;;;;4971124;28;20057;-56
2022/06/15 00:33:51;;;;;;;14.07;10.02;;;12.50;99.90;;;;;;4970403;28;20046;-57
2022/06/15 00:36:19;;;;;;;12.32;9.25;;;12.50;99.90;;;;;;4965921;28;20437;-57
2022/06/15 00:38:54;;;;;;;12.20;9.00;;;12.50;99.90;;;;;;4969338;28;20038;-55
2022/06/15 00:41:32;;;;;;;11.70;9.05;;;12.40;99.90;;;;;;4968847;28;20046;-57
2022/06/15 00:44:20;;;;;;;17.08;11.10;;;12.50;99.90;;;;;;4966485;28;20050;-55
2022/06/15 00:46:52;;;;;;;14.45;9.57;;;12.40;99.90;;;;;;4966406;28;20081;-57
2022/06/15 00:49:23;;;;;;;17.17;11.30;;;12.40;99.90;;;;;;4950763;28;20113;-56
2022/06/15 00:51:53;;;;;;;14.05;10.75;;;12.50;99.90;;;;;;4966705;28;20046;-58
2022/06/15 00:54:21;;;;;;;13.85;10.73;;;12.40;99.90;;;;;;4966719;28;20413;-56
2022/06/15 00:56:47;;;;;;;18.58;11.27;;;12.40;99.90;;;;;;4964780;28;20042;-56
2022/06/15 00:59:19;;;;;;;16.35;11.43;;;12.30;99.90;;;;;;4970942;28;20053;-58
2022/06/15 01:01:45;;;;;;;11.60;8.57;;;12.30;99.90;;;;;;4968064;28;20535;-58
2022/06/15 01:04:12;;;;;;;17.42;11.60;;;12.30;99.90;;;;;;4964820;28;20196;-57
2022/06/15 01:06:51;;;;;;;15.68;10.98;;;12.30;99.90;;;;;;4971243;28;20379;-58
2022/06/15 01:09:28;;;;;;;14.95;10.85;;;12.30;99.90;;;;;;4965513;28;20118;-57
2022/06/15 01:12:12;;;;;;;12.30;8.05;;;12.30;99.90;;;;;;4966150;28;20129;-56
2022/06/15 01:15:11;;;;;;;14.75;9.15;;;12.30;99.90;;;;;;4970674;28;20385;-57
2022/06/15 01:18:00;;;;;;;14.55;9.52;;;12.20;99.90;;;;;;4985517;28;20050;-58
2022/06/15 01:20:26;;;;;;;11.85;9.05;;;12.20;99.90;;;;;;4969840;28;20068;-56
2022/06/15 01:23:03;;;;;;;13.13;9.20;;;12.10;99.90;;;;;;4971147;28;20034;-56
2022/06/15 01:26:21;;;;;;;14.40;8.77;;;12.10;99.90;;;;;;4967324;28;20056;-56
2022/06/15 01:29:33;;;;;;;12.75;9.02;;;12.10;99.90;;;;;;4909761;29;20454;-53
2022/06/15 01:32:41;;;;;;;16.23;9.38;;;12.00;99.90;;;;;;4919533;28;20430;-57
2022/06/15 01:35:45;;;;;;;12.77;8.47;;;12.00;99.90;;;;;;4965818;28;20039;-58
2022/06/15 01:38:46;;;;;;;15.38;9.55;;;12.00;99.90;;;;;;4971983;28;20301;-56
2022/06/15 01:41:31;;;;;;;11.95;8.25;;;12.00;99.90;;;;;;4948493;28;20129;-56
2022/06/15 01:44:16;;;;;;;13.70;9.38;;;11.90;99.90;;;;;;4953958;28;20042;-54
2022/06/15 01:46:47;;;;;;;12.25;8.88;;;11.90;99.90;;;;;;4949710;28;20057;-57
2022/06/15 01:49:31;;;;;;;14.80;10.38;;;11.90;99.90;;;;;;4964499;28;20141;-56
2022/06/15 01:51:59;;;;;;;14.45;8.63;;;11.90;99.90;;;;;;4972103;28;20045;-54
2022/06/15 01:54:30;;;;;;;16.33;10.18;;;11.90;99.90;;;;;;4973063;28;20393;-56
2022/06/15 01:56:58;;;;;;;14.82;9.65;;;11.90;99.90;;;;;;4972877;28;20611;-57
2022/06/15 01:59:37;;;;;;;17.20;10.35;;;11.90;99.90;;;;;;4966117;28;20042;-59
2022/06/15 02:02:15;;;;;;;12.93;9.60;;;11.90;99.90;;;;;;4973847;28;20504;-55
2022/06/15 02:04:48;;;;;;;15.80;9.55;;;11.90;99.90;;;;;;4971887;28;20137;-57
2022/06/15 02:07:32;;;;;;;14.05;9.73;;;11.80;99.90;;;;;;4977331;28;20478;-58
2022/06/15 02:10:30;;;;;;;8.70;6.80;;;11.80;99.90;;;;;;4974048;28;20042;-58
2022/06/15 02:13:05;;;;;;;13.85;9.88;;;11.80;99.90;;;;;;4973679;28;20478;-53
2022/06/15 02:15:33;;;;;;;12.20;9.20;;;11.80;99.90;;;;;;4978132;28;20087;-56
2022/06/15 02:18:02;;;;;;;10.23;8.07;;;11.70;99.90;;;;;;4977933;28;20117;-56
2022/06/15 02:20:36;;;;;;;15.60;10.18;;;11.80;99.90;;;;;;4977867;28;20065;-58
2022/06/15 02:23:06;;;;;;;12.65;9.25;;;11.80;99.90;;;;;;4960780;28;20058;-57
2022/06/15 02:25:35;;;;;;;9.23;7.78;;;11.80;99.90;;;;;;4978896;28;20133;-56
2022/06/15 02:28:02;;;;;;;15.13;9.77;;;11.70;99.90;;;;;;4971895;28;20122;-56
2022/06/15 02:30:29;;;;;;;12.05;9.77;;;11.70;99.90;;;;;;4953078;28;20046;-56
2022/06/15 02:32:55;;;;;;;12.43;9.90;;;11.70;99.90;;;;;;4965535;28;20489;-57
2022/06/15 02:35:22;;;;;;;14.80;10.35;;;11.70;99.90;;;;;;4957500;28;20068;-56
2022/06/15 02:37:50;;;;;;;11.32;8.23;;;11.70;99.90;;;;;;4956921;28;20058;-56
2022/06/15 02:40:21;;;;;;;13.65;9.15;;;11.60;99.90;;;;;;4962172;28;20043;-57
2022/06/15 02:42:47;;;;;;;10.00;7.40;;;11.60;99.90;;;;;;4963189;28;20046;-58
2022/06/15 02:45:34;;;;;;;12.18;8.63;;;11.60;99.90;;;;;;4960892;28;20050;-56
2022/06/15 02:48:00;;;;;;;10.95;8.52;;;11.70;99.90;;;;;;4959043;28;20133;-57
2022/06/15 02:50:33;;;;;;;16.00;10.32;;;11.70;99.90;;;;;;4961964;28;20052;-56
2022/06/15 02:53:13;;;;;;;19.73;10.63;;;11.60;99.90;;;;;;4961081;28;20046;-57
2022/06/15 02:55:40;;;;;;;15.70;10.27;;;11.60;99.90;;;;;;4960108;28;20035;-56
2022/06/15 02:58:13;;;;;;;15.20;10.05;;;11.60;99.90;;;;;;4976085;28;20405;-56
2022/06/15 03:00:39;;;;;;;12.07;10.07;;;11.60;99.90;;;;;;4964770;28;20042;-57
2022/06/15 03:03:06;;;;;;;11.98;9.02;;;11.60;99.90;;;;;;4964425;28;20053;-57
2022/06/15 03:05:32;;;;;;;13.93;9.95;;;11.60;99.90;;;;;;4961397;28;20046;-56
2022/06/15 03:07:57;;;;;;;16.75;9.82;;;11.70;99.90;;;;;;4965936;28;20507;-55
2022/06/15 03:10:24;;;;;;;12.23;8.77;;;11.70;99.90;;;;;;4943150;28;20043;-57
2022/06/15 03:12:49;;;;;;;11.07;9.07;;;11.80;99.90;;;;;;4980125;28;20053;-54
2022/06/15 03:15:15;;;;;;;17.70;11.40;;;11.80;99.90;;;;;;4960607;28;20080;-56
2022/06/15 03:17:41;;;;;;;13.38;10.25;;;11.80;99.90;;;;;;4959652;28;20052;-56
2022/06/15 03:20:09;;;;;;;15.25;10.25;;;11.80;99.90;;;;;;4967944;28;20042;-57
2022/06/15 03:22:35;;;;;;;18.70;11.20;;;11.90;99.90;;;;;;4963122;28;20051;-58
2022/06/15 03:25:01;;;;;;;11.32;7.85;;;11.90;99.90;;;;;;4956413;28;20105;-57
2022/06/15 03:27:27;;;;;;;12.70;7.80;;;11.90;99.90;;;;;;4962873;28;20110;-59
2022/06/15 03:29:53;;;;;;;14.95;10.35;;;11.90;99.90;;;;;;4961941;28;20081;-56
2022/06/15 03:32:19;;;;;;;13.70;9.38;;;12.00;99.90;;;;;;4978702;28;20541;-57
2022/06/15 03:34:45;;;;;;;15.07;10.75;;;12.00;99.90;;;;;;4966213;28;20479;-57
2022/06/15 03:37:10;;;;;;;10.82;8.05;;;12.00;99.90;;;;;;4960365;28;20678;-55
2022/06/15 03:39:37;;;;;;;19.60;11.43;;;12.00;99.90;;;;;;4966009;28;20383;-56
2022/06/15 03:42:19;;;;;;;13.13;8.02;;;12.00;99.90;;;;;;4959271;28;20092;-57
2022/06/15 03:44:46;;;;;;;15.10;11.25;;;12.00;99.90;;;;;;4959892;28;20042;-57
2022/06/15 03:47:18;;;;;;;11.60;9.07;;;12.00;99.90;;;;;;4961192;28;20704;-56
2022/06/15 03:49:45;;;;;;;15.93;12.18;;;12.00;99.90;;;;;;4964854;28;20209;-57
2022/06/15 03:52:11;;;;;;;13.65;11.00;;;12.10;99.90;;;;;;4947689;28;20062;-56
2022/06/15 03:54:37;;;;;;;13.90;11.05;;;12.10;99.90;;;;;;4965022;28;20076;-56
2022/06/15 03:57:04;;;;;;;13.32;10.32;;;12.20;99.90;;;;;;4964284;28;20446;-55
2022/06/15 03:59:30;;;;;;;13.25;10.13;;;12.20;99.90;;;;;;4964646;28;20103;-58
2022/06/15 04:01:56;;;;;;;12.80;9.48;;;12.20;99.90;;;;;;4960362;28;20054;-58
2022/06/15 04:04:22;;;;;;;15.75;10.30;;;12.30;99.90;;;;;;4968165;28;20038;-56
2022/06/15 04:06:49;;;;;;;14.75;11.25;;;12.30;99.90;;;;;;4959930;28;20042;-59
2022/06/15 04:09:26;;;;;;;11.73;7.70;;;12.40;99.90;;;;;;4962924;28;20045;-56
2022/06/15 04:11:59;;;;;;;13.68;9.77;;;12.40;99.90;;;;;;4964795;28;20042;-58
2022/06/15 04:14:32;;;;;;;15.00;9.55;;;12.50;99.90;;;;;;4958514;28;20043;-57
2022/06/15 04:16:58;;;;;;;13.60;9.63;;;12.50;99.90;;;;;;4944494;28;20041;-58
2022/06/15 04:19:27;;;;;;;12.70;8.43;;;12.50;99.90;;;;;;4963221;28;20197;-62
2022/06/15 04:21:54;;;;;;;15.15;11.85;;;12.60;99.90;;;;;;4963815;28;20073;-57
2022/06/15 04:24:22;;;;;;;16.38;10.50;;;12.60;99.90;;;;;;4965263;28;20528;-57
2022/06/15 04:26:49;;;;;;;10.57;8.18;;;12.60;99.90;;;;;;4969754;28;20072;-57
2022/06/15 04:29:16;;;;;;;13.95;10.98;;;12.60;99.90;;;;;;4951925;28;20054;-58
2022/06/15 04:31:42;;;;;;;16.42;11.35;;;12.70;99.90;;;;;;4973061;28;20042;-58
2022/06/15 04:34:12;;;;;;;15.30;9.52;;;12.70;99.90;;;;;;4972100;28;20073;-58
2022/06/15 04:36:41;;;;;;;14.57;12.18;;;12.70;99.90;;;;;;4970913;28;20549;-58
2022/06/15 04:39:10;;;;;;;17.27;10.52;;;12.80;99.90;;;;;;4987025;28;20052;-58
2022/06/15 04:41:37;;;;;;;12.98;9.45;;;12.80;99.90;;;;;;4970192;28;20038;-57
2022/06/15 04:44:05;;;;;;;14.95;11.57;;;12.80;99.90;;;;;;4977496;28;20046;-57
2022/06/15 04:46:31;;;;;;;17.02;12.35;;;12.80;99.90;;;;;;4948014;28;20085;-57
2022/06/15 04:48:57;;;;;;;14.73;11.32;;;12.90;99.90;;;;;;4969512;28;20050;-57
2022/06/15 04:51:25;;;;;;;11.75;9.30;;;12.90;99.90;;;;;;4964286;28;20051;-58
2022/06/15 04:53:53;;;;;;;17.15;12.10;;;12.90;99.90;;;;;;4970123;28;20499;-58
2022/06/15 04:56:20;;;;;;;15.65;10.98;;;12.90;99.90;;;;;;4967656;28;20064;-58
2022/06/15 04:58:46;;;;;;;18.90;12.30;;;13.00;99.90;;;;;;4983946;28;20416;-58
2022/06/15 05:01:13;;;;;;;14.52;11.07;;;13.00;99.90;;;;;;4964264;28;20492;-57
2022/06/15 05:03:40;;;;;;;19.05;11.75;;;13.00;99.90;;;;;;4968690;28;20093;-58
2022/06/15 05:06:11;;;;;;;15.07;11.80;;;13.10;99.90;;;;;;4967912;28;20046;-57
2022/06/15 05:08:38;;;;;;;15.57;12.02;;;13.10;99.90;;;;;;4967623;28;20121;-56
2022/06/15 05:11:04;;;;;;;16.27;11.20;;;13.20;99.90;;;;;;4968107;28;20043;-56
2022/06/15 05:13:30;;;;;;;16.13;11.68;;;13.30;99.90;;;;;;4965821;28;20049;-56
2022/06/15 05:15:55;;;;;;;13.73;10.10;;;13.30;99.90;;;;;;4968569;28;20080;-56
2022/06/15 05:18:21;;;;;;;13.40;10.10;;;13.40;99.90;;;;;;4953124;28;20053;-57
2022/06/15 05:20:47;;;;;;;16.38;9.73;;;13.40;99.90;;;;;;4967762;28;20277;-58
2022/06/15 05:23:15;;;;;;;15.05;10.63;;;13.50;99.90;;;;;;4967152;28;20581;-57
2022/06/15 05:25:42;;;;;;;13.48;9.65;;;13.60;99.90;;;;;;4965687;28;20421;-58
2022/06/15 05:28:09;;;;;;;12.73;9.43;;;13.70;99.90;;;;;;4965013;28;20640;-57
2022/06/15 05:30:36;;;;;;;14.60;10.73;;;13.70;99.90;;;;;;4965419;28;20050;-57
2022/06/15 05:33:02;;;;;;;12.88;7.30;;;13.70;99.90;;;;;;4961851;28;20054;-57
2022/06/15 05:35:29;;;;;;;13.25;9.60;;;13.90;99.90;;;;;;4957248;28;20089;-57
2022/06/15 05:37:54;;;;;;;12.07;9.18;;;14.00;99.90;;;;;;4963846;28;20046;-58
2022/06/15 05:40:20;;;;;;;15.65;8.65;;;14.10;99.90;;;;;;4970655;28;20077;-55
2022/06/15 05:42:46;;;;;;;13.30;9.65;;;14.20;99.90;;;;;;4951660;28;20046;-56
2022/06/15 05:45:11;;;;;;;12.57;7.90;;;14.30;99.90;;;;;;4972890;28;20052;-58
2022/06/15 05:47:37;;;;;;;14.43;8.70;;;14.40;99.90;;;;;;4965188;28;20046;-57
2022/06/15 05:50:04;;;;;;;12.82;7.78;;;14.50;99.90;;;;;;4961640;28;20054;-57
2022/06/15 05:52:30;;;;;;;15.32;8.15;;;14.50;99.90;;;;;;4963914;28;20275;-56
2022/06/15 05:54:58;;;;;;;9.90;7.25;;;14.60;99.90;;;;;;4967598;28;20046;-57
2022/06/15 05:57:25;;;;;;;12.73;7.60;;;14.70;99.90;;;;;;4969876;28;20132;-57
2022/06/15 05:59:53;;;;;;;14.18;8.27;;;14.70;99.90;;;;;;4967213;28;20123;-57
2022/06/15 06:02:21;;;;;;;16.15;8.18;;;14.80;99.90;;;;;;4951274;28;20593;-57
2022/06/15 06:04:47;;;;;;;15.93;8.63;;;14.90;99.90;;;;;;4974828;28;20042;-57
2022/06/15 06:07:13;;;;;;;13.52;8.15;;;15.00;99.90;;;;;;4963817;28;20323;-56
2022/06/15 06:09:38;;;;;;;13.57;8.35;;;15.10;99.90;;;;;;5008818;23;20050;-60
2022/06/15 06:12:06;;;;;;;13.20;7.93;;;15.20;99.90;;;;;;4998600;28;21951;-52
2022/06/15 06:14:32;;;;;;;11.88;7.22;;;15.30;99.90;;;;;;4981444;28;20037;-57
2022/06/15 06:16:58;;;;;;;13.73;7.65;;;15.40;99.90;;;;;;4994043;28;20084;-57
2022/06/15 06:19:23;;;;;;;12.13;8.82;;;15.50;99.90;;;;;;4988832;28;20037;-61
2022/06/15 06:21:49;;;;;;;10.38;7.75;;;15.60;99.90;;;;;;4983278;28;21622;-55
2022/06/15 06:24:15;;;;;;;10.32;6.53;;;15.70;99.90;;;;;;4989154;28;20126;-61
2022/06/15 06:26:45;;;;;;;10.55;6.13;;;15.80;99.90;;;;;;4988040;28;20184;-56
2022/06/15 06:29:16;;;;;;;11.55;6.93;;;15.80;99.90;;;;;;4993760;28;23313;-56
2022/06/15 06:31:42;;;;;;;11.23;7.03;;;15.90;99.90;;;;;;4992142;28;20340;-55
2022/06/15 06:34:10;;;;;;;11.00;6.05;;;16.00;99.90;;;;;;4995530;28;20053;-56
2022/06/15 06:36:45;;;;;;;10.07;5.78;;;16.10;99.90;;;;;;4985077;28;20405;-57
2022/06/15 06:39:26;;;;;;;14.40;6.53;;;16.20;99.90;;;;;;4987809;28;20045;-61
2022/06/15 06:41:56;;;;;;;12.10;6.75;;;16.30;99.90;;;;;;4987552;28;20045;-56
2022/06/15 06:44:22;;;;;;;10.30;6.22;;;16.40;99.90;;;;;;4987972;28;21944;-58
2022/06/15 06:46:50;;;;;;;14.38;7.05;;;16.50;99.90;;;;;;4975872;28;20062;-56
2022/06/15 06:49:16;;;;;;;12.05;6.55;;;16.60;99.90;;;;;;4979404;28;20042;-55
2022/06/15 06:51:44;;;;;;;11.68;6.88;;;16.80;99.90;;;;;;4983986;28;20046;-53
2022/06/15 06:54:13;;;;;;;15.02;6.53;;;16.80;99.90;;;;;;4987723;28;20124;-59
2022/06/15 06:56:39;;;;;;;11.63;5.88;;;16.90;99.90;;;;;;4975195;28;20057;-57
2022/06/15 06:59:07;;;;;;;11.10;6.85;;;17.00;99.90;;;;;;4986416;28;20054;-57
2022/06/15 07:01:37;;;;;;;12.18;6.85;;;17.10;99.90;;;;;;4971534;28;20496;-58
2022/06/15 07:04:03;;;;;;;9.60;5.78;;;17.10;99.90;;;;;;4978795;28;20038;-60
2022/06/15 07:06:29;;;;;;;9.25;5.65;;;17.10;99.90;;;;;;4979055;28;20049;-54
2022/06/15 07:08:56;;;;;;;9.88;5.95;;;17.00;99.90;;;;;;4991908;28;20039;-57
2022/06/15 07:11:22;;;;;;;10.13;5.78;;;17.10;99.90;;;;;;4990986;28;20480;-60
2022/06/15 07:13:48;;;;;;;11.48;5.97;;;17.10;99.90;;;;;;4989284;28;20568;-55
2022/06/15 07:16:19;;;;;;;9.75;4.63;;;17.00;99.90;;;;;;4991345;28;20042;-56
2022/06/15 07:18:46;;;;;;;10.65;4.63;;;17.00;99.90;;;;;;4990412;28;20046;-55
2022/06/15 07:21:23;;;;;;;11.68;4.53;;;17.00;99.90;;;;;;4988789;28;21458;-59
2022/06/15 07:23:51;;;;;;;7.70;4.90;;;17.10;99.90;;;;;;4984240;28;20160;-58
2022/06/15 07:26:20;;;;;;;9.55;4.68;;;17.30;99.90;;;;;;4989336;28;20078;-56
2022/06/15 07:28:47;;;;;;;7.32;4.55;;;17.50;99.90;;;;;;4990719;28;20052;-55
2022/06/15 07:31:31;;;;;;;9.23;4.30;;;17.60;99.90;;;;;;4980776;28;20049;-57
2022/06/15 07:33:57;;;;;;;9.32;4.03;;;17.70;99.90;;;;;;4984502;28;20034;-54
2022/06/15 07:36:24;;;;;;;7.50;4.32;;;17.80;99.90;;;;;;4963910;28;20187;-53
2022/06/15 07:38:55;;;;;;;7.63;4.05;;;17.80;99.90;;;;;;4996489;28;20056;-57
2022/06/15 07:41:21;;;;;;;7.53;4.07;;;17.80;99.90;;;;;;4988276;28;20080;-60
2022/06/15 07:43:48;;;;;;;9.55;4.55;;;17.70;99.90;;;;;;4963025;28;20480;-55
2022/06/15 07:46:14;;;;;;;7.55;3.83;;;17.70;99.90;;;;;;4999648;28;20046;-58
2022/06/15 07:51:33;;;;;;;8.40;3.00;;;17.70;99.90;;;;;;4979505;28;20087;-56
2022/06/15 07:54:00;;;;;;;7.70;3.70;;;17.70;99.90;;;;;;4975096;28;20045;-57
2022/06/15 07:56:27;;;;;;;7.40;3.03;;;17.70;99.90;;;;;;4958030;28;20086;-55
2022/06/15 07:58:53;;;;;;;7.53;3.35;;;17.70;99.90;;;;;;4978924;28;20046;-55
2022/06/15 08:01:19;;;;;;;7.68;2.97;;;17.80;99.90;;;;;;4981518;28;20038;-55
2022/06/15 08:03:45;;;;;;;8.65;3.55;;;17.90;99.90;;;;;;4979762;28;20458;-58
2022/06/15 08:06:11;;;;;;;8.15;3.50;;;18.00;99.90;;;;;;4991870;28;20797;-60
2022/06/15 08:08:37;;;;;;;11.00;4.10;;;18.10;99.90;;;;;;4994745;28;20197;-55
2022/06/15 08:11:03;;;;;;;6.47;3.78;;;18.30;99.90;;;;;;4993623;28;20452;-55
2022/06/15 08:13:29;;;;;;;7.00;2.90;;;18.40;99.90;;;;;;4991700;28;20100;-60
2022/06/15 08:15:55;;;;;;;11.23;3.72;;;18.50;99.90;;;;;;5004080;28;20929;-55
2022/06/15 08:18:25;;;;;;;7.28;3.42;;;18.70;99.90;;;;;;4979818;28;20192;-55
2022/06/15 08:21:01;;;;;;;8.13;3.22;;;18.70;99.90;;;;;;4988659;28;20059;-52
2022/06/15 08:23:31;;;;;;;9.38;2.47;;;18.90;99.90;;;;;;4983513;28;20070;-57
2022/06/15 08:26:00;;;;;;;9.82;2.90;;;19.00;99.90;;;;;;4983990;28;20205;-53
2022/06/15 08:28:30;;;;;;;9.00;3.33;;;19.10;99.90;;;;;;4989701;28;20034;-55
2022/06/15 08:30:56;;;;;;;5.15;2.80;;;19.20;99.90;;;;;;4997131;28;20117;-56
2022/06/15 08:33:23;;;;;;;7.15;2.20;;;19.20;99.90;;;;;;4975203;28;20041;-57
2022/06/15 08:35:50;;;;;;;5.03;2.03;;;19.20;99.90;;;;;;4976054;28;20045;-59
2022/06/15 08:38:18;;;;;;;5.05;2.10;;;19.30;99.90;;;;;;4988665;28;20049;-57
2022/06/15 08:40:59;;;;;;;5.95;2.13;;;19.50;99.90;;;;;;4988166;28;20046;-55
2022/06/15 08:43:51;;;;;;;6.20;2.00;;;19.60;99.90;;;;;;4975933;28;20117;-56
2022/06/15 08:46:32;;;;;;;7.32;2.72;;;19.80;99.90;;;;;;4998177;28;20105;-56
2022/06/15 08:49:25;;;;;;;5.05;2.42;;;19.90;99.90;;;;;;4964545;28;20037;-55
2022/06/15 08:51:58;;;;;;;4.82;2.83;;;20.00;99.50;;;;;;4989571;28;20030;-58
2022/06/15 08:54:41;;;;;;;4.15;2.40;;;20.00;99.90;;;;;;4981161;28;20057;-58
2022/06/15 08:57:10;;;;;;;7.97;2.08;;;20.10;99.00;;;;;;4979868;28;20754;-57
2022/06/15 08:59:46;;;;;;;5.07;2.50;;;20.00;99.10;;;;;;4978322;28;20046;-55
2022/06/15 09:02:16;;;;;;;5.03;2.42;;;20.20;99.60;;;;;;4992219;28;20038;-59
2022/06/15 09:04:46;;;;;;;5.50;2.45;;;20.40;99.20;;;;;;4987668;28;20550;-56
2022/06/15 09:07:42;;;;;;;5.28;3.30;;;20.40;98.30;;;;;;4984242;28;20485;-60
2022/06/15 09:10:30;;;;;;;6.28;2.70;;;20.40;98.30;;;;;;4983268;28;20049;-60
2022/06/15 09:13:25;;;;;;;7.40;3.03;;;20.40;99.00;;;;;;5013606;28;20053;-58
2022/06/15 09:16:09;;;;;;;5.82;2.70;;;20.50;98.80;;;;;;4997212;28;20080;-57
2022/06/15 09:18:45;;;;;;;6.38;3.05;;;20.70;98.30;;;;;;4988833;28;20046;-58
2022/06/15 09:21:32;;;;;;;6.03;3.03;;;20.70;98.70;;;;;;4977956;28;20045;-54
2022/06/15 09:24:12;;;;;;;6.35;2.88;;;20.90;99.30;;;;;;4982192;28;20041;-60
2022/06/15 09:26:53;;;;;;;4.68;2.63;;;20.90;98.20;;;;;;4987220;28;20161;-56
2022/06/15 09:29:26;;;;;;;8.82;3.15;;;21.00;98.10;;;;;;4979900;28;20034;-60
2022/06/15 09:32:00;;;;;;;10.65;5.03;;;21.10;98.80;;;;;;4986318;28;20042;-61
2022/06/15 09:34:37;;;;;;;11.00;4.28;;;21.20;98.70;;;;;;4979417;28;20078;-55
2022/06/15 09:37:10;;;;;;;61.10;39.28;;;21.30;98.10;;;;;;4980600;28;20093;-56
2022/06/15 09:39:37;;;;;;;9.90;4.47;;;21.40;98.10;;;;;;4989258;28;20050;-59
2022/06/15 09:42:03;;;;;;;7.00;3.20;;;21.50;97.80;;;;;;4993371;28;20053;-61
2022/06/15 09:44:55;;;;;;;7.65;4.47;;;21.20;97.20;;;;;;5002972;28;20041;-59
2022/06/15 09:47:49;;;;;;;6.30;2.80;;;21.00;96.80;;;;;;5007866;28;20042;-57
2022/06/15 09:50:20;;;;;;;8.82;3.50;;;20.80;97.60;;;;;;4984768;28;20052;-54
2022/06/15 09:53:27;;;;;;;5.32;3.10;;;20.50;97.10;;;;;;5004723;28;20136;-55
2022/06/15 09:56:01;;;;;;;8.77;2.95;;;20.30;96.60;;;;;;4930374;28;20062;-53
2022/06/15 09:58:36;;;;;;;5.75;3.17;;;20.40;98.10;;;;;;4935191;28;20118;-56
2022/06/15 10:01:03;;;;;;;5.28;2.65;;;20.60;98.10;;;;;;4981486;28;20053;-57
2022/06/15 10:03:32;;;;;;;8.13;2.63;;;20.70;98.20;;;;;;4989304;28;20162;-57
2022/06/15 10:06:16;;;;;;;6.93;3.00;;;20.60;98.40;;;;;;4991113;28;20038;-57
2022/06/15 10:08:42;;;;;;;4.97;3.70;;;20.80;98.00;;;;;;4989697;28;20069;-60
2022/06/15 10:11:15;;;;;;;9.13;3.17;;;20.90;98.40;;;;;;5000314;28;20069;-61
2022/06/15 10:13:41;;;;;;;5.68;3.00;;;21.20;98.30;;;;;;4998075;28;20046;-58
2022/06/15 10:16:24;;;;;;;8.05;2.95;;;21.40;98.20;;;;;;5005570;28;20378;-55
2022/06/15 10:18:53;;;;;;;4.05;2.83;;;21.60;97.80;;;;;;4992639;28;20132;-55
2022/06/15 10:21:29;;;;;;;10.07;3.55;;;21.90;97.70;;;;;;4988322;28;20136;-61
2022/06/15 10:24:17;;;;;;;8.65;3.40;;;22.10;96.90;;;;;;4987367;28;20207;-61
2022/06/15 10:27:11;;;;;;;7.85;3.38;;;22.20;97.00;;;;;;4987478;28;20050;-57
2022/06/15 10:29:37;;;;;;;7.35;3.58;;;22.20;97.50;;;;;;4969607;28;20046;-59
2022/06/15 10:32:09;;;;;;;10.15;3.60;;;22.40;96.90;;;;;;5001941;28;20044;-58
2022/06/15 10:34:46;;;;;;;8.63;3.97;;;22.50;96.80;;;;;;4987846;28;20034;-59
2022/06/15 10:37:27;;;;;;;7.60;3.47;;;22.50;96.10;;;;;;4985292;28;20100;-55
2022/06/15 10:39:58;;;;;;;7.30;2.92;;;22.60;96.20;;;;;;4993047;28;20803;-61
2022/06/15 10:42:37;;;;;;;6.25;3.38;;;22.70;96.00;;;;;;4989436;28;20127;-60
2022/06/15 10:45:19;;;;;;;5.50;3.33;;;22.70;95.40;;;;;;4969870;28;20081;-62
2022/06/15 10:47:52;;;;;;;5.47;2.75;;;22.60;95.70;;;;;;4973442;28;20048;-57
2022/06/15 10:50:26;;;;;;;7.15;3.38;;;22.70;95.00;;;;;;4986063;28;20046;-62
2022/06/15 10:53:05;;;;;;;6.20;2.90;;;22.80;94.50;;;;;;5003815;28;20046;-64
2022/06/15 11:02:10;;;;;;;5.15;2.72;;;23.10;93.80;;;;;;4945760;28;20171;-63
2022/06/15 11:04:45;;;;;;;8.07;3.47;;;23.10;93.40;;;;;;4986893;28;20103;-60
2022/06/15 11:07:23;;;;;;;6.35;2.95;;;22.90;93.20;;;;;;4972196;28;20428;-60
2022/06/15 11:09:54;;;;;;;7.03;3.55;;;23.00;92.70;;;;;;4990372;28;20050;-62
2022/06/15 11:12:29;;;;;;;6.95;3.03;;;23.00;92.50;;;;;;4997173;28;20053;-61
2022/06/15 11:15:00;;;;;;;5.68;2.75;;;23.00;92.20;;;;;;5001521;28;20129;-57
2022/06/15 11:20:35;;;;;;;5.95;3.33;;;23.20;92.00;;;;;;5004979;28;20046;-56
2022/06/15 11:23:14;;;;;;;8.63;3.28;;;23.20;91.10;;;;;;4999668;28;20037;-56
2022/06/15 11:25:52;;;;;;;6.95;2.80;;;23.00;91.70;;;;;;4996708;28;20140;-59
2022/06/15 11:28:25;;;;;;;6.38;3.47;;;23.20;91.80;;;;;;5006983;28;20052;-59
2022/06/15 11:31:14;;;;;;;5.35;2.92;;;23.50;91.90;;;;;;5000705;28;20044;-59
2022/06/15 11:34:04;;;;;;;9.10;3.28;;;23.60;91.30;;;;;;4985379;28;20058;-57
2022/06/15 11:36:54;;;;;;;7.35;3.10;;;23.50;90.70;;;;;;4971827;28;20140;-59
2022/06/15 11:39:30;;;;;;;6.60;3.22;;;23.70;92.40;;;;;;4984192;28;20053;-59
2022/06/15 11:41:57;;;;;;;5.55;2.30;;;23.80;91.20;;;;;;4988580;28;20124;-57
2022/06/15 11:44:27;;;;;;;4.90;2.60;;;23.80;91.40;;;;;;4990124;28;20521;-61
2022/06/15 11:47:30;;;;;;;5.78;2.83;;;23.90;91.30;;;;;;4964429;28;21734;-62
2022/06/15 11:50:20;;;;;;;5.78;2.50;;;24.10;90.30;;;;;;4967600;28;20108;-63
2022/06/15 11:52:51;;;;;;;4.88;2.97;;;24.20;86.50;;;;;;5003361;28;20068;-61
2022/06/15 11:55:17;;;;;;;4.72;2.58;;;24.10;87.00;;;;;;4987901;28;20060;-60
2022/06/15 11:57:52;;;;;;;5.32;2.78;;;23.80;89.40;;;;;;5000825;28;20481;-61
2022/06/15 12:00:31;;;;;;;5.30;2.50;;;23.80;90.10;;;;;;4988723;28;20052;-58
2022/06/15 12:03:21;;;;;;;7.47;2.75;;;23.30;89.50;;;;;;4999753;28;20345;-59
2022/06/15 12:06:13;;;;;;;5.10;2.65;;;23.00;89.40;;;;;;5001758;28;20070;-59
2022/06/15 12:14:47;;;;;;;9.73;2.67;;;22.50;90.20;;;;;;4987257;28;20053;-60
2022/06/15 12:17:20;;;;;;;9.80;2.90;;;22.40;91.00;;;;;;4975489;28;20708;-60
2022/06/15 12:20:00;;;;;;;6.60;2.50;;;22.20;90.40;;;;;;5007423;28;20382;-60
2022/06/15 12:22:33;;;;;;;6.20;2.78;;;22.10;91.10;;;;;;4991544;28;20065;-60
2022/06/15 12:25:08;;;;;;;6.82;3.50;;;22.10;90.70;;;;;;4997467;28;22518;-59
2022/06/15 12:27:44;;;;;;;6.38;2.97;;;22.10;90.10;;;;;;4993027;28;20044;-60
2022/06/15 12:30:28;;;;;;;5.70;2.90;;;22.40;91.20;;;;;;4996123;28;20738;-60
2022/06/15 12:33:00;;;;;;;;;;;22.80;91.00;;;;;;5006630;28;20041;-60
2022/06/15 12:35:30;;;;;;;6.50;2.70;;;23.30;88.20;;;;;;5004474;28;19917;-59
2022/06/15 12:38:07;;;;;;;7.50;3.00;;;23.70;89.70;;;;;;5000466;28;20044;-60
2022/06/15 12:40:41;;;;;;;6.68;2.60;;;24.00;87.40;;;;;;5001674;28;20076;-60
2022/06/15 12:43:28;;;;;;;5.47;3.00;;;24.10;86.60;;;;;;5001812;28;20038;-60
2022/06/15 12:46:06;;;;;;;6.78;2.90;;;24.20;84.00;;;;;;4982509;28;20142;-60
2022/06/15 12:48:54;;;;;;;5.80;3.05;;;24.50;86.20;;;;;;4998101;28;20247;-60
2022/06/15 12:51:44;;;;;;;8.60;2.58;;;24.80;86.50;;;;;;4994768;28;20041;-59
2022/06/15 12:54:47;;;;;;;6.03;2.78;;;24.70;78.90;;;;;;4993833;28;21492;-58
2022/06/15 12:57:50;;;;;;;6.75;2.70;;;24.20;80.60;;;;;;4998087;28;20044;-59
2022/06/15 13:00:39;;;;;;;8.13;3.30;;;24.20;79.70;;;;;;5003143;28;20053;-59
2022/06/15 13:03:43;;;;;;;5.05;2.83;;;24.00;79.00;;;;;;4981640;28;20073;-59
2022/06/15 13:06:38;;;;;;;8.73;2.97;;;23.80;79.30;;;;;;4966310;28;20377;-59
2022/06/15 13:09:04;;;;;;;7.07;2.50;;;24.00;80.10;;;;;;4992382;28;20115;-59
2022/06/15 13:11:31;;;;;;;6.55;2.65;;;24.10;80.80;;;;;;5005350;28;20224;-60
2022/06/15 13:14:11;;;;;;;8.52;2.53;;;24.20;78.50;;;;;;5010074;28;20049;-59
2022/06/15 13:16:41;;;;;;;6.57;2.72;;;24.20;81.90;;;;;;4984802;28;20132;-59
2022/06/15 13:19:25;;;;;;;4.93;2.80;;;24.40;79.60;;;;;;4994869;28;20103;-58
2022/06/15 13:21:52;;;;;;;4.05;2.67;;;24.00;80.30;;;;;;5020463;28;20103;-59
2022/06/15 13:24:18;;;;;;;6.03;2.65;;;23.70;79.90;;;;;;5010657;28;20443;-59
2022/06/15 13:26:44;;;;;;;7.30;3.03;;;23.80;83.80;;;;;;5005316;28;20164;-59
2022/06/15 13:29:10;;;;;;;6.57;3.17;;;23.90;83.90;;;;;;5024516;28;20053;-58